Time;durP1;ratioP1;P1;durP2;ratioP2;P2;SDS_P1;SDS_P2;PMS_P1;PMS_P2;Temp;Humidity;BMP_temperature;BMP_pressure;BME280_temperature;BME280_humidity;BME280_pressure;Samples;Min_cycle;Max_cycle;Signal;HPM_P1;HPM_P2
2022/10/16 00:00:10;;;;;;;105.35;65.65;;;;;;;21.47;63.42;99137.06;2073067;28;20056;-66
2022/10/16 00:01:12;;;;;;;111.38;67.65;;;;;;;21.47;63.51;99137.88;2069744;28;20044;-66
2022/10/16 00:02:14;;;;;;;110.03;67.38;;;;;;;21.47;63.52;99143.28;2068672;28;20607;-66
2022/10/16 00:03:15;;;;;;;104.57;66.20;;;;;;;21.49;63.49;99141.22;2069217;28;20060;-67
2022/10/16 00:04:17;;;;;;;107.47;67.95;;;;;;;21.47;63.32;99139.75;2071559;28;20053;-67
2022/10/16 00:05:17;;;;;;;114.95;70.03;;;;;;;21.46;63.33;99144.34;2066213;28;20053;-66
2022/10/16 00:06:21;;;;;;;109.22;68.35;;;;;;;21.48;63.43;99144.97;2071000;28;20049;-66
2022/10/16 00:07:22;;;;;;;105.35;66.43;;;;;;;21.47;63.33;99137.88;2069742;28;20583;-66
2022/10/16 00:08:24;;;;;;;113.28;64.88;;;;;;;21.47;63.27;99145.97;2070063;28;20054;-66
2022/10/16 00:09:25;;;;;;;107.35;67.32;;;;;;;21.48;63.35;99147.66;2069980;28;20054;-67
2022/10/16 00:10:26;;;;;;;105.65;65.55;;;;;;;21.48;63.31;99150.38;2071338;28;20525;-66
2022/10/16 00:11:30;;;;;;;107.05;66.32;;;;;;;21.48;63.22;99144.97;2073006;28;20203;-66
2022/10/16 00:12:32;;;;;;;101.15;62.45;;;;;;;21.47;63.28;99155.94;2071128;28;20069;-67
2022/10/16 00:13:34;;;;;;;101.47;65.45;;;;;;;21.47;63.22;99150.56;2073103;28;20053;-65
2022/10/16 00:14:36;;;;;;;101.80;64.53;;;;;;;21.47;63.33;99154.09;2071703;28;20060;-67
2022/10/16 00:15:38;;;;;;;104.13;63.38;;;;;;;21.47;63.51;99156.78;2070714;28;20054;-67
2022/10/16 00:16:40;;;;;;;100.10;63.47;;;;;;;21.48;63.36;99158.47;2072256;28;20495;-65
2022/10/16 00:17:41;;;;;;;105.28;67.65;;;;;;;21.49;63.35;99160.09;2058755;28;20507;-65
2022/10/16 00:18:43;;;;;;;99.88;64.75;;;;;;;21.48;63.25;99157.59;2070507;28;20042;-65
2022/10/16 00:19:44;;;;;;;106.20;68.45;;;;;;;21.48;63.42;99158.47;2072087;28;20065;-66
2022/10/16 00:20:45;;;;;;;108.93;67.78;;;;;;;21.46;63.29;99157.81;2069655;28;20132;-66
2022/10/16 00:21:46;;;;;;;107.57;62.15;;;;;;;21.47;63.25;99154.09;2074015;28;20049;-66
2022/10/16 00:22:48;;;;;;;102.15;64.18;;;;;;;21.47;63.19;99155.94;2071932;28;20312;-66
2022/10/16 00:23:51;;;;;;;103.97;66.45;;;;;;;21.46;63.50;99160.53;2068989;28;20093;-65
2022/10/16 00:24:53;;;;;;;99.38;62.28;;;;;;;21.47;63.36;99161.34;2069924;28;20069;-67
2022/10/16 00:25:57;;;;;;;100.35;61.28;;;;;;;21.45;63.26;99156.16;2071425;28;20103;-67
2022/10/16 00:27:00;;;;;;;93.20;61.22;;;;;;;21.46;63.52;99163.22;2073762;28;20080;-67
2022/10/16 00:28:01;;;;;;;95.43;62.08;;;;;;;21.47;63.42;99159.47;2071182;28;20042;-66
2022/10/16 00:29:03;;;;;;;98.03;61.58;;;;;;;21.47;63.32;99164.88;2071244;28;20049;-67
2022/10/16 00:30:05;;;;;;;90.80;61.20;;;;;;;21.46;63.27;99165.94;2069804;28;20438;-67
2022/10/16 00:31:09;;;;;;;93.45;59.75;;;;;;;21.45;63.27;99166.94;2071022;28;20052;-67
2022/10/16 00:32:10;;;;;;;98.80;59.08;;;;;;;21.47;63.58;99172.16;2070970;28;20049;-66
2022/10/16 00:33:11;;;;;;;;;;;;;;;21.36;63.68;99166.31;2072089;28;21111;-66
2022/10/16 00:34:12;;;;;;;106.30;61.78;;;;;;;21.37;63.61;99170.72;2070066;28;19928;-67
2022/10/16 00:35:14;;;;;;;90.80;58.45;;;;;;;21.38;63.46;99160.75;2071445;28;20049;-66
2022/10/16 00:36:17;;;;;;;92.88;59.80;;;;;;;21.41;63.56;99161.16;2069691;28;20058;-66
2022/10/16 00:37:19;;;;;;;100.78;61.40;;;;;;;21.45;63.27;99163.41;2075131;28;20049;-67
2022/10/16 00:38:20;;;;;;;98.93;60.80;;;;;;;21.43;63.38;99163.66;2070232;28;20486;-66
2022/10/16 00:39:22;;;;;;;91.78;59.33;;;;;;;21.45;63.42;99172.34;2072977;28;20058;-66
2022/10/16 00:40:22;;;;;;;98.03;59.17;;;;;;;21.44;63.40;99162.59;2063786;28;20045;-66
2022/10/16 00:41:26;;;;;;;96.65;61.85;;;;;;;21.44;63.61;99167.16;2068859;28;20152;-67
2022/10/16 00:42:28;;;;;;;101.00;60.88;;;;;;;21.45;63.38;99166.94;2072370;28;20045;-67
2022/10/16 00:43:41;;;;;;;97.35;61.75;;;;;;;21.39;63.53;99157.00;2070269;28;20137;-66
2022/10/16 00:44:49;;;;;;;90.10;58.50;;;;;;;21.41;63.31;99165.72;2070045;28;20053;-66
2022/10/16 00:45:51;;;;;;;88.10;56.53;;;;;;;21.42;63.33;99156.56;2066630;28;20042;-66
2022/10/16 00:46:52;;;;;;;83.95;55.88;;;;;;;21.42;63.39;99162.81;2070923;28;20053;-65
2022/10/16 00:47:56;;;;;;;95.18;57.80;;;;;;;21.45;63.11;99174.22;2068804;28;20049;-66
2022/10/16 00:49:01;;;;;;;87.32;57.95;;;;;;;21.45;63.57;99171.53;2073151;28;20077;-66
2022/10/16 00:50:09;;;;;;;91.55;56.65;;;;;;;21.42;63.56;99172.75;2071725;28;20257;-65
2022/10/16 00:51:10;;;;;;;92.05;58.60;;;;;;;21.42;63.62;99170.91;2071077;28;20057;-67
2022/10/16 00:52:12;;;;;;;86.80;58.45;;;;;;;21.42;63.57;99170.91;2071069;28;20561;-65
2022/10/16 00:53:14;;;;;;;99.18;59.90;;;;;;;21.41;63.28;99163.84;2071682;28;20049;-67
2022/10/16 00:54:20;;;;;;;83.78;55.83;;;;;;;21.44;63.72;99170.69;2071484;28;20159;-66
2022/10/16 00:55:22;;;;;;;84.82;56.03;;;;;;;21.43;63.63;99163.66;2070092;28;20107;-67
2022/10/16 00:56:23;;;;;;;96.43;60.38;;;;;;;21.43;63.42;99171.75;2074428;28;20057;-65
2022/10/16 00:57:25;;;;;;;91.80;58.10;;;;;;;21.45;63.38;99171.53;2073015;28;20111;-66
2022/10/16 00:58:28;;;;;;;88.80;56.08;;;;;;;21.43;63.26;99169.03;2073488;28;20060;-67
2022/10/16 00:59:32;;;;;;;84.85;54.00;;;;;;;21.42;63.63;99176.31;2072089;28;20419;-66
2022/10/16 01:00:34;;;;;;;82.05;54.42;;;;;;;21.42;63.34;99168.22;2075553;28;20060;-66
2022/10/16 01:01:35;;;;;;;91.57;55.28;;;;;;;21.41;63.51;99171.94;2072496;28;20097;-67
2022/10/16 01:02:37;;;;;;;84.63;54.88;;;;;;;21.42;63.34;99168.22;2069482;28;20080;-66
2022/10/16 01:03:38;;;;;;;86.63;56.53;;;;;;;21.42;63.42;99168.22;2072857;28;20110;-65
2022/10/16 01:04:42;;;;;;;89.60;55.85;;;;;;;21.41;63.46;99169.25;2072143;28;20478;-66
2022/10/16 01:05:52;;;;;;;93.97;55.45;;;;;;;21.39;63.34;99165.91;2069516;28;20297;-66
2022/10/16 01:07:04;;;;;;;81.85;53.78;;;;;;;21.38;63.38;99164.25;2069997;28;20535;-66
2022/10/16 01:08:12;;;;;;;88.63;55.90;;;;;;;21.38;63.28;99163.44;2070022;28;20357;-66
2022/10/16 01:09:21;;;;;;;82.15;53.28;;;;;;;21.38;63.58;99161.56;2071743;28;20053;-67
2022/10/16 01:10:31;;;;;;;82.32;51.92;;;;;;;21.39;63.65;99157.81;2073872;28;20124;-67
2022/10/16 01:11:38;;;;;;;86.38;52.53;;;;;;;21.39;63.75;99154.28;2068514;28;20050;-67
2022/10/16 01:12:44;;;;;;;83.90;52.80;;;;;;;21.40;63.59;99155.97;2070077;28;20056;-67
2022/10/16 01:13:54;;;;;;;79.90;51.08;;;;;;;21.38;63.41;99158.03;2070807;28;20050;-65
2022/10/16 01:14:59;;;;;;;77.20;52.33;;;;;;;21.38;63.53;99160.75;2073141;28;20099;-67
2022/10/16 01:16:07;;;;;;;85.93;52.97;;;;;;;21.37;63.42;99161.78;2071516;28;20289;-65
2022/10/16 01:17:12;;;;;;;81.32;52.53;;;;;;;21.38;63.47;99161.56;2071533;28;20437;-66
2022/10/16 01:18:18;;;;;;;79.75;52.83;;;;;;;21.38;63.51;99158.03;2069160;28;20291;-67
2022/10/16 01:19:31;;;;;;;78.75;49.28;;;;;;;21.38;63.34;99158.88;2071672;28;20060;-66
2022/10/16 01:20:37;;;;;;;81.60;51.58;;;;;;;21.39;63.43;99162.38;2070417;28;20491;-66
2022/10/16 01:21:42;;;;;;;79.18;51.42;;;;;;;21.37;63.64;99159.91;2073885;28;20537;-67
2022/10/16 01:22:51;;;;;;;85.57;53.35;;;;;;;21.38;63.53;99166.13;2070261;28;20056;-66
2022/10/16 01:24:03;;;;;;;81.43;49.78;;;;;;;21.38;63.46;99166.13;2069103;28;20099;-66
2022/10/16 01:25:08;;;;;;;81.20;51.38;;;;;;;21.37;63.38;99175.28;2069498;28;20068;-66
2022/10/16 01:26:24;;;;;;;81.28;51.75;;;;;;;21.35;63.47;99166.53;2068470;28;20038;-66
2022/10/16 01:27:31;;;;;;;79.45;49.35;;;;;;;21.36;63.67;99166.31;2071904;28;20049;-66
2022/10/16 01:28:38;;;;;;;75.57;48.70;;;;;;;21.37;63.45;99164.50;2072072;28;20053;-66
2022/10/16 01:29:47;;;;;;;79.20;50.08;;;;;;;21.38;63.36;99166.13;2070073;28;20053;-66
2022/10/16 01:30:50;;;;;;;77.65;49.72;;;;;;;21.38;63.62;99158.03;2070190;28;20065;-67
2022/10/16 01:31:57;;;;;;;72.32;48.38;;;;;;;21.39;63.75;99170.47;2070711;28;20049;-65
2022/10/16 01:33:03;;;;;;;82.20;50.60;;;;;;;21.39;63.57;99167.78;2071900;28;20061;-66
2022/10/16 01:34:08;;;;;;;75.93;49.10;;;;;;;21.38;63.64;99166.13;2067706;28;20442;-66
2022/10/16 01:35:14;;;;;;;70.72;48.05;;;;;;;21.38;63.33;99163.44;2072080;28;20053;-66
2022/10/16 01:36:22;;;;;;;73.53;48.53;;;;;;;21.38;63.45;99168.84;2071464;28;20107;-66
2022/10/16 01:37:31;;;;;;;78.22;51.10;;;;;;;21.35;63.50;99161.97;2069893;28;20053;-66
2022/10/16 01:38:37;;;;;;;80.13;49.45;;;;;;;21.35;63.64;99170.06;2071038;28;20466;-67
2022/10/16 01:39:42;;;;;;;72.13;45.53;;;;;;;21.36;63.70;99160.91;2068642;28;20461;-66
2022/10/16 01:40:48;;;;;;;75.00;48.53;;;;;;;21.37;63.64;99167.19;2069608;28;20136;-67
2022/10/16 01:41:55;;;;;;;72.90;47.90;;;;;;;21.36;63.62;99165.47;2071545;28;20052;-66
2022/10/16 01:43:03;;;;;;;69.80;45.67;;;;;;;21.36;63.54;99169.00;2068879;28;20041;-66
2022/10/16 01:44:07;;;;;;;70.38;44.70;;;;;;;21.36;63.73;99169.00;2070860;28;20088;-66
2022/10/16 01:45:13;;;;;;;71.53;47.65;;;;;;;21.36;63.58;99162.78;2068861;28;20643;-65
2022/10/16 01:46:18;;;;;;;72.15;47.55;;;;;;;21.37;63.39;99164.50;2071754;28;20049;-66
2022/10/16 01:47:24;;;;;;;68.90;45.65;;;;;;;21.37;63.42;99169.88;2070454;28;20133;-67
2022/10/16 01:48:24;;;;;;;72.70;46.15;;;;;;;21.35;63.56;99166.53;2069461;28;20553;-66
2022/10/16 01:49:31;;;;;;;68.53;46.95;;;;;;;21.38;63.38;99174.22;2067731;28;20061;-66
2022/10/16 01:50:34;;;;;;;70.03;45.28;;;;;;;21.37;63.53;99168.00;2069149;28;20107;-66
2022/10/16 01:51:38;;;;;;;72.72;47.13;;;;;;;21.36;63.43;99171.69;2071197;28;20053;-66
2022/10/16 01:52:43;;;;;;;69.50;47.22;;;;;;;21.35;63.71;99171.94;2070600;28;20355;-66
2022/10/16 01:53:56;;;;;;;63.33;43.42;;;;;;;21.36;63.63;99174.41;2072642;28;20094;-66
2022/10/16 01:54:59;;;;;;;65.90;42.72;;;;;;;21.36;63.74;99178.97;2070472;28;20146;-66
2022/10/16 01:56:02;;;;;;;70.00;44.40;;;;;;;21.37;63.69;99177.97;2067352;28;20431;-67
2022/10/16 01:57:07;;;;;;;68.35;44.20;;;;;;;21.37;63.62;99177.97;2070993;28;20049;-65
2022/10/16 01:58:12;;;;;;;63.00;42.45;;;;;;;21.37;63.58;99175.28;2068847;28;20058;-66
2022/10/16 01:59:17;;;;;;;66.00;42.13;;;;;;;21.36;63.65;99171.69;2066621;28;20060;-66
2022/10/16 02:00:22;;;;;;;76.10;45.88;;;;;;;21.36;63.44;99174.41;2067022;28;20045;-66
2022/10/16 02:01:26;;;;;;;69.00;44.90;;;;;;;21.35;63.66;99172.75;2068461;28;20258;-67
2022/10/16 02:02:30;;;;;;;67.40;43.80;;;;;;;21.35;63.46;99178.16;2068520;28;20081;-65
2022/10/16 02:03:34;;;;;;;70.05;45.35;;;;;;;21.36;63.37;99170.88;2065440;28;20291;-66
2022/10/16 02:04:40;;;;;;;65.95;44.85;;;;;;;21.36;63.41;99173.56;2064227;28;20057;-67
2022/10/16 02:05:45;;;;;;;69.13;43.45;;;;;;;21.34;63.49;99171.09;2068856;28;20127;-66
2022/10/16 02:06:47;;;;;;;66.10;43.10;;;;;;;21.35;63.63;99163.81;2068570;28;20451;-67
2022/10/16 02:07:48;;;;;;;69.45;43.35;;;;;;;21.35;63.61;99171.94;2067765;28;20077;-67
2022/10/16 02:08:50;;;;;;;66.03;42.72;;;;;;;21.35;63.64;99166.53;2068602;28;20053;-66
2022/10/16 02:09:51;;;;;;;68.13;44.08;;;;;;;21.33;63.49;99164.03;2068505;28;20482;-67
2022/10/16 02:10:53;;;;;;;63.88;42.13;;;;;;;21.35;63.33;99161.13;2070005;28;20160;-67
2022/10/16 02:11:57;;;;;;;65.60;41.90;;;;;;;21.35;63.37;99167.34;2068328;28;20099;-66
2022/10/16 02:13:03;;;;;;;63.70;42.70;;;;;;;21.34;63.60;99164.84;2069066;28;20107;-66
2022/10/16 02:14:06;;;;;;;67.00;43.33;;;;;;;21.33;63.61;99163.19;2068279;28;20053;-66
2022/10/16 02:15:09;;;;;;;67.18;43.72;;;;;;;21.35;63.28;99172.75;2068614;28;20046;-66
2022/10/16 02:16:11;;;;;;;61.10;41.08;;;;;;;21.35;63.30;99166.53;2067536;28;20076;-66
2022/10/16 02:17:14;;;;;;;68.03;43.40;;;;;;;21.34;63.56;99168.41;2067981;28;20476;-66
2022/10/16 02:18:15;;;;;;;63.70;43.67;;;;;;;21.35;63.29;99174.63;2070341;28;20334;-67
2022/10/16 02:19:20;;;;;;;63.30;42.28;;;;;;;21.34;63.26;99168.41;2064942;28;20449;-67
2022/10/16 02:20:27;;;;;;;61.33;41.88;;;;;;;21.36;63.38;99173.56;2068923;28;20510;-67
2022/10/16 02:21:34;;;;;;;60.17;39.33;;;;;;;21.35;63.56;99171.94;2068163;28;20172;-66
2022/10/16 02:22:40;;;;;;;65.20;41.83;;;;;;;21.35;63.49;99171.94;2067189;28;20057;-66
2022/10/16 02:23:50;;;;;;;65.57;39.88;;;;;;;21.33;63.68;99169.41;2069268;28;20291;-66
2022/10/16 02:24:56;;;;;;;62.42;39.90;;;;;;;21.32;63.50;99170.47;2068129;28;20464;-67
2022/10/16 02:26:03;;;;;;;60.97;41.40;;;;;;;21.33;63.59;99160.50;2067711;28;20049;-65
2022/10/16 02:27:09;;;;;;;60.05;39.78;;;;;;;21.34;63.63;99164.84;2065666;28;20618;-67
2022/10/16 02:28:17;;;;;;;65.50;40.38;;;;;;;21.32;63.61;99161.56;2069359;28;20076;-67
2022/10/16 02:29:24;;;;;;;59.65;40.90;;;;;;;21.33;63.32;99174.00;2053308;28;20057;-66
2022/10/16 02:30:31;;;;;;;53.92;38.42;;;;;;;21.33;63.43;99177.50;2068714;28;20354;-65
2022/10/16 02:31:35;;;;;;;67.00;41.75;;;;;;;21.34;63.24;99176.50;2065076;28;20392;-67
2022/10/16 02:32:40;;;;;;;61.63;39.65;;;;;;;21.32;63.64;99167.78;2070481;28;20568;-66
2022/10/16 02:33:43;;;;;;;66.45;39.78;;;;;;;21.32;63.54;99167.78;2066147;28;20053;-66
2022/10/16 02:34:46;;;;;;;59.05;38.40;;;;;;;21.33;63.54;99168.59;2068617;28;20236;-66
2022/10/16 02:35:50;;;;;;;55.05;39.95;;;;;;;21.33;63.51;99176.69;2063329;28;20095;-67
2022/10/16 02:36:53;;;;;;;63.20;39.38;;;;;;;21.32;63.64;99172.34;2073309;28;20541;-66
2022/10/16 02:37:55;;;;;;;62.90;40.03;;;;;;;21.32;63.32;99167.78;2056059;28;20056;-66
2022/10/16 02:39:01;;;;;;;61.92;40.45;;;;;;;21.31;63.62;99167.97;2067459;28;20087;-67
2022/10/16 02:40:04;;;;;;;63.70;39.08;;;;;;;21.32;63.27;99177.75;2065399;28;20317;-66
2022/10/16 02:41:07;;;;;;;55.25;39.42;;;;;;;21.34;63.62;99175.63;2069876;28;20133;-67
2022/10/16 02:42:10;;;;;;;60.17;40.08;;;;;;;21.32;63.52;99173.16;2071025;28;20073;-66
2022/10/16 02:43:12;;;;;;;51.70;37.15;;;;;;;21.34;63.68;99181.03;2070603;28;20430;-66
2022/10/16 02:44:13;;;;;;;63.92;38.60;;;;;;;21.34;63.23;99181.03;2067894;28;20114;-65
2022/10/16 02:45:16;;;;;;;;;;;;;;;21.24;63.76;99180.66;2070185;28;20126;-66
2022/10/16 02:46:17;;;;;;;59.20;36.60;;;;;;;21.28;63.65;99181.88;2070062;28;19974;-66
2022/10/16 02:47:19;;;;;;;57.35;36.35;;;;;;;21.30;63.66;99186.03;2067595;28;20057;-66
2022/10/16 02:48:20;;;;;;;63.38;40.33;;;;;;;21.32;63.44;99189.34;2068575;28;20597;-66
2022/10/16 02:49:21;;;;;;;61.72;38.95;;;;;;;21.32;63.74;99186.66;2065053;28;20054;-66
2022/10/16 02:50:24;;;;;;;56.90;37.55;;;;;;;21.32;63.40;99191.22;2070035;28;20199;-67
2022/10/16 02:51:25;;;;;;;54.92;37.33;;;;;;;21.32;63.59;99188.53;2070082;28;20089;-67
2022/10/16 02:52:26;;;;;;;60.28;38.63;;;;;;;21.32;63.27;99193.94;2067847;28;20088;-67
2022/10/16 02:53:28;;;;;;;53.78;36.08;;;;;;;21.34;63.43;99191.84;2067533;28;20445;-67
2022/10/16 02:54:29;;;;;;;60.35;38.17;;;;;;;21.33;63.50;99185.59;2065241;28;20052;-66
2022/10/16 02:55:30;;;;;;;58.80;38.47;;;;;;;21.32;63.70;99189.34;2069880;28;20111;-66
2022/10/16 02:56:31;;;;;;;53.15;35.67;;;;;;;21.32;63.48;99189.34;2069842;28;20046;-66
2022/10/16 02:57:33;;;;;;;62.35;37.40;;;;;;;21.34;63.33;99189.13;2068329;28;20453;-67
2022/10/16 02:58:34;;;;;;;53.38;35.90;;;;;;;21.33;63.50;99195.56;2067492;28;20503;-67
2022/10/16 02:59:35;;;;;;;58.92;38.05;;;;;;;21.32;63.60;99191.22;2068207;28;20103;-66
2022/10/16 03:00:38;;;;;;;56.13;36.92;;;;;;;21.33;63.54;99195.56;2064581;28;20053;-67
2022/10/16 03:01:39;;;;;;;54.47;35.05;;;;;;;21.32;63.54;99185.84;2066830;28;20084;-67
2022/10/16 03:02:40;;;;;;;53.15;36.97;;;;;;;21.33;63.38;99198.28;2072608;28;20091;-66
2022/10/16 03:03:42;;;;;;;53.80;36.10;;;;;;;21.31;63.45;99193.09;2067821;28;20366;-65
2022/10/16 03:04:42;;;;;;;63.63;37.03;;;;;;;21.32;63.34;99191.22;2069080;28;20542;-67
2022/10/16 03:05:45;;;;;;;52.05;35.60;;;;;;;21.31;63.73;99194.94;2066301;28;20053;-66
2022/10/16 03:06:46;;;;;;;57.10;35.88;;;;;;;21.30;63.50;99191.44;2068595;28;20601;-66
2022/10/16 03:07:47;;;;;;;60.28;36.88;;;;;;;21.31;63.41;99192.25;2064328;28;20106;-67
2022/10/16 03:08:48;;;;;;;52.72;36.65;;;;;;;21.31;63.28;99192.25;2068363;28;21044;-67
2022/10/16 03:09:50;;;;;;;47.13;34.55;;;;;;;21.29;63.43;99184.38;2068673;28;20061;-66
2022/10/16 03:10:51;;;;;;;53.30;33.78;;;;;;;21.31;63.48;99192.25;2069117;28;20054;-67
2022/10/16 03:11:53;;;;;;;55.45;37.22;;;;;;;21.30;63.51;99191.44;2072464;28;20072;-66
2022/10/16 03:12:53;;;;;;;50.83;33.45;;;;;;;21.31;63.26;99195.81;2070199;28;20209;-67
2022/10/16 03:13:55;;;;;;;;;;;;;;;21.20;63.73;99191.00;2066909;28;20169;-67
2022/10/16 03:14:56;;;;;;;;;;;;;;;21.11;63.98;99198.47;2067105;28;20322;-67
2022/10/16 03:15:59;;;;;;;47.83;32.60;;;;;;;21.18;64.03;99193.91;2067874;28;19928;-67
2022/10/16 03:17:00;;;;;;;56.10;35.00;;;;;;;21.23;63.84;99200.53;2064779;28;20048;-65
2022/10/16 03:18:01;;;;;;;55.38;35.53;;;;;;;21.24;63.56;99192.25;2064948;28;20045;-66
2022/10/16 03:19:02;;;;;;;52.35;35.67;;;;;;;21.26;63.61;99195.59;2067440;28;20080;-67
2022/10/16 03:20:04;;;;;;;;;;;;;;;21.16;63.71;99198.69;2066703;28;20494;-66
2022/10/16 03:21:05;;;;;;;57.55;35.10;;;;;;;21.19;63.87;99198.25;2066810;28;19994;-66
2022/10/16 03:22:06;;;;;;;49.72;33.20;;;;;;;21.24;63.86;99192.25;2069461;28;20060;-67
2022/10/16 03:23:08;;;;;;;49.67;33.95;;;;;;;21.27;63.65;99185.63;2068347;28;20608;-67
2022/10/16 03:24:09;;;;;;;53.53;35.80;;;;;;;21.28;63.48;99187.28;2067892;28;20057;-66
2022/10/16 03:25:10;;;;;;;54.72;35.60;;;;;;;21.29;63.42;99191.66;2067430;28;20061;-65
2022/10/16 03:26:12;;;;;;;50.55;34.40;;;;;;;21.29;63.58;99194.34;2067433;28;20100;-67
2022/10/16 03:27:13;;;;;;;49.83;32.92;;;;;;;21.29;63.35;99191.66;2067327;28;20068;-66
2022/10/16 03:28:14;;;;;;;55.35;34.10;;;;;;;21.30;63.41;99196.00;2069566;28;20129;-66
2022/10/16 03:29:15;;;;;;;47.13;35.22;;;;;;;21.29;63.59;99188.94;2065809;28;20473;-66
2022/10/16 03:30:17;;;;;;;47.33;31.83;;;;;;;21.29;63.68;99197.03;2067741;28;20045;-65
2022/10/16 03:31:19;;;;;;;53.13;34.25;;;;;;;21.29;63.29;99194.34;2069043;28;20119;-66
2022/10/16 03:32:21;;;;;;;47.92;32.60;;;;;;;21.28;63.56;99198.06;2067774;28;20419;-66
2022/10/16 03:33:22;;;;;;;48.50;32.58;;;;;;;21.28;63.60;99198.88;2066940;28;20057;-66
2022/10/16 03:34:24;;;;;;;51.50;34.30;;;;;;;21.28;63.56;99204.28;2066528;28;20140;-67
2022/10/16 03:35:25;;;;;;;50.50;32.38;;;;;;;21.29;63.59;99194.34;2063533;28;20056;-66
2022/10/16 03:36:26;;;;;;;48.95;32.88;;;;;;;21.28;63.34;99198.06;2067281;28;20140;-66
2022/10/16 03:37:27;;;;;;;50.15;31.98;;;;;;;21.28;63.36;99198.06;2067204;28;20076;-67
2022/10/16 03:38:29;;;;;;;49.05;32.30;;;;;;;21.27;63.27;99202.63;2068154;28;20045;-66
2022/10/16 03:39:30;;;;;;;49.28;32.63;;;;;;;21.27;63.59;99208.03;2069931;28;20053;-67
2022/10/16 03:40:32;;;;;;;50.92;30.08;;;;;;;21.27;63.54;99193.72;2068418;28;20050;-66
2022/10/16 03:41:33;;;;;;;47.75;31.10;;;;;;;21.30;63.31;99201.41;2067679;28;20053;-67
2022/10/16 03:42:34;;;;;;;43.80;29.92;;;;;;;21.28;63.36;99196.19;2067983;28;20493;-66
2022/10/16 03:43:35;;;;;;;50.17;33.40;;;;;;;21.28;63.25;99192.66;2070477;28;20057;-67
2022/10/16 03:44:37;;;;;;;47.35;32.47;;;;;;;21.26;63.30;99192.88;2067432;28;20438;-66
2022/10/16 03:45:38;;;;;;;49.55;32.42;;;;;;;21.25;63.55;99187.69;2070813;28;20041;-67
2022/10/16 03:46:41;;;;;;;49.85;32.47;;;;;;;21.26;63.49;99200.16;2069550;28;20235;-66
2022/10/16 03:47:42;;;;;;;48.90;31.40;;;;;;;21.25;63.56;99188.50;2071786;28;20136;-66
2022/10/16 03:48:44;;;;;;;46.35;31.38;;;;;;;21.28;63.36;99195.38;2066399;28;20050;-67
2022/10/16 03:49:44;;;;;;;45.35;32.45;;;;;;;21.30;63.57;99190.59;2070829;28;20166;-67
2022/10/16 03:50:48;;;;;;;49.03;31.67;;;;;;;21.28;63.48;99188.09;2071948;28;20141;-66
2022/10/16 03:51:48;;;;;;;50.60;30.52;;;;;;;21.28;63.45;99192.66;2069122;28;20058;-67
2022/10/16 03:52:50;;;;;;;43.63;30.65;;;;;;;21.26;63.46;99195.59;2071107;28;20570;-66
2022/10/16 03:53:51;;;;;;;43.13;29.05;;;;;;;21.26;63.27;99186.66;2067256;28;20050;-67
2022/10/16 03:54:53;;;;;;;47.13;30.88;;;;;;;21.26;63.26;99189.38;2068932;28;20041;-66
2022/10/16 03:55:53;;;;;;;50.47;30.35;;;;;;;21.26;63.22;99184.81;2070917;28;20135;-66
2022/10/16 03:56:55;;;;;;;45.53;30.60;;;;;;;21.25;63.21;99188.50;2070397;28;20467;-67
2022/10/16 03:57:56;;;;;;;43.17;29.67;;;;;;;21.25;63.21;99187.69;2071402;28;20504;-67
2022/10/16 03:58:57;;;;;;;40.78;29.63;;;;;;;21.26;63.23;99186.66;2073445;28;20049;-67
2022/10/16 03:59:58;;;;;;;39.88;28.10;;;;;;;21.26;63.54;99186.66;2070186;28;20106;-67
2022/10/16 04:01:00;;;;;;;50.30;31.23;;;;;;;21.28;63.08;99188.09;2067670;28;20444;-67
2022/10/16 04:02:02;;;;;;;43.97;29.33;;;;;;;21.26;63.39;99184.81;2071941;28;20526;-66
2022/10/16 04:03:04;;;;;;;47.13;29.23;;;;;;;21.27;63.24;99191.00;2071850;28;20053;-66
2022/10/16 04:04:05;;;;;;;45.67;28.90;;;;;;;21.27;63.23;99191.00;2068036;28;20507;-67
2022/10/16 04:05:07;;;;;;;43.80;27.52;;;;;;;21.26;63.15;99189.38;2070940;28;20107;-67
2022/10/16 04:06:08;;;;;;;42.65;28.88;;;;;;;21.25;63.39;99193.09;2068329;28;20057;-66
2022/10/16 04:07:10;;;;;;;42.30;27.33;;;;;;;21.25;63.52;99198.47;2069268;28;20559;-67
2022/10/16 04:08:11;;;;;;;42.08;28.13;;;;;;;21.26;63.26;99194.75;2068547;28;20055;-67
2022/10/16 04:09:13;;;;;;;38.88;27.95;;;;;;;21.26;63.37;99192.06;2070277;28;20061;-66
2022/10/16 04:10:13;;;;;;;48.20;31.27;;;;;;;21.25;63.26;99199.31;2070365;28;20049;-66
2022/10/16 04:11:15;;;;;;;39.65;29.10;;;;;;;21.26;63.30;99205.56;2070871;28;20119;-66
2022/10/16 04:12:16;;;;;;;40.30;29.00;;;;;;;21.25;63.34;99201.19;2069922;28;20065;-66
2022/10/16 04:13:18;;;;;;;44.45;28.73;;;;;;;21.28;63.23;99196.19;2072313;28;20046;-66
2022/10/16 04:14:19;;;;;;;43.78;28.55;;;;;;;21.26;63.39;99192.88;2070463;28;20069;-66
2022/10/16 04:15:20;;;;;;;42.92;27.45;;;;;;;21.25;63.38;99193.91;2069080;28;20161;-67
2022/10/16 04:16:21;;;;;;;44.33;28.27;;;;;;;21.23;63.44;99196.00;2070629;28;20072;-67
2022/10/16 04:17:24;;;;;;;40.67;28.27;;;;;;;21.25;63.41;99203.88;2070050;28;20054;-66
2022/10/16 04:18:27;;;;;;;41.10;27.90;;;;;;;21.23;63.42;99190.63;2070177;28;20050;-66
2022/10/16 04:19:28;;;;;;;42.03;28.48;;;;;;;21.23;63.53;99198.72;2066424;28;20050;-67
2022/10/16 04:20:29;;;;;;;42.97;28.50;;;;;;;21.24;63.35;99191.44;2070747;28;20272;-67
2022/10/16 04:21:31;;;;;;;41.05;26.30;;;;;;;21.23;63.34;99198.72;2068497;28;20056;-66
2022/10/16 04:22:32;;;;;;;39.67;27.00;;;;;;;21.26;63.39;99194.75;2068099;28;20053;-67
2022/10/16 04:23:34;;;;;;;39.33;26.90;;;;;;;21.24;63.38;99200.34;2071748;28;20049;-67
2022/10/16 04:24:35;;;;;;;44.00;28.30;;;;;;;21.24;63.35;99197.66;2074162;28;20049;-67
2022/10/16 04:25:36;;;;;;;41.67;27.65;;;;;;;21.25;63.21;99193.09;2075471;28;20078;-66
2022/10/16 04:26:37;;;;;;;38.58;27.10;;;;;;;21.26;63.16;99194.75;2072381;28;20042;-68
2022/10/16 04:27:39;;;;;;;36.22;25.25;;;;;;;21.24;63.21;99196.84;2071199;28;20111;-66
2022/10/16 04:28:40;;;;;;;40.80;25.33;;;;;;;21.24;63.14;99203.06;2068995;28;20638;-66
2022/10/16 04:29:42;;;;;;;40.20;26.77;;;;;;;21.24;63.48;99202.22;2068055;28;20052;-66
2022/10/16 04:30:42;;;;;;;43.05;27.42;;;;;;;21.24;63.34;99197.66;2071995;28;20045;-66
2022/10/16 04:31:44;;;;;;;43.65;27.88;;;;;;;21.24;63.50;99204.94;2068669;28;20064;-67
2022/10/16 04:32:50;;;;;;;40.75;26.63;;;;;;;21.23;63.22;99195.16;2073916;28;20061;-67
2022/10/16 04:33:51;;;;;;;41.28;27.02;;;;;;;21.23;63.30;99200.53;2068164;28;20454;-67
2022/10/16 04:34:53;;;;;;;38.75;24.65;;;;;;;21.23;63.29;99214.88;2066679;28;20055;-65
2022/10/16 04:35:57;;;;;;;41.78;27.05;;;;;;;21.24;63.27;99213.03;2069715;28;20100;-66
2022/10/16 04:36:59;;;;;;;40.85;26.25;;;;;;;21.23;63.47;99214.03;2072023;28;20052;-67
2022/10/16 04:38:00;;;;;;;35.50;24.75;;;;;;;21.23;63.54;99211.34;2069741;28;20061;-66
2022/10/16 04:39:02;;;;;;;37.35;26.10;;;;;;;21.23;63.35;99211.34;2072464;28;20049;-66
2022/10/16 04:40:03;;;;;;;35.15;24.40;;;;;;;21.24;63.41;99199.53;2069588;28;20054;-66
2022/10/16 04:41:05;;;;;;;35.30;25.45;;;;;;;21.25;63.36;99206.56;2068874;28;20050;-66
2022/10/16 04:42:06;;;;;;;39.47;26.10;;;;;;;21.23;63.46;99209.50;2069781;28;20565;-67
2022/10/16 04:43:08;;;;;;;39.75;25.50;;;;;;;21.23;63.20;99214.03;2070185;28;20041;-66
2022/10/16 04:44:09;;;;;;;34.25;23.25;;;;;;;21.22;63.25;99215.09;2069124;28;20347;-67
2022/10/16 04:45:11;;;;;;;40.13;25.63;;;;;;;21.23;63.42;99216.72;2068281;28;20053;-66
2022/10/16 04:46:12;;;;;;;38.53;25.77;;;;;;;21.23;63.54;99216.72;2069869;28;20442;-66
2022/10/16 04:47:14;;;;;;;38.92;25.58;;;;;;;21.23;63.35;99211.34;2069713;28;20052;-66
2022/10/16 04:48:16;;;;;;;37.75;23.30;;;;;;;21.23;63.37;99220.28;2067165;28;20730;-66
2022/10/16 04:49:18;;;;;;;36.33;25.10;;;;;;;21.22;63.44;99210.50;2070730;28;20053;-65